sensor_id;sensor_type;location;lat;lon;timestamp;pressure;altitude;pressure_sealevel;temperature;humidity
81905;BME280;71370;-33.792;151.032;2023-09-30T00:00:38;101634.06;;;22.85;51.60
81905;BME280;71370;-33.792;151.032;2023-09-30T00:01:45;101630.96;;;22.89;51.63
81905;BME280;71370;-33.792;151.032;2023-09-30T00:02:52;101629.84;;;22.94;51.41
81905;BME280;71370;-33.792;151.032;2023-09-30T00:03:59;101630.63;;;23.00;49.74
81905;BME280;71370;-33.792;151.032;2023-09-30T00:05:08;101628.11;;;23.04;49.98
81905;BME280;71370;-33.792;151.032;2023-09-30T00:06:16;101625.86;;;23.09;48.68
81905;BME280;71370;-33.792;151.032;2023-09-30T00:07:23;101616.27;;;23.14;49.13
81905;BME280;71370;-33.792;151.032;2023-09-30T00:08:31;101615.34;;;23.19;49.71
81905;BME280;71370;-33.792;151.032;2023-09-30T00:09:38;101612.38;;;23.23;49.52
81905;BME280;71370;-33.792;151.032;2023-09-30T00:10:46;101607.85;;;23.27;48.79
81905;BME280;71370;-33.792;151.032;2023-09-30T00:11:53;101610.06;;;23.33;48.78
81905;BME280;71370;-33.792;151.032;2023-09-30T00:13:01;101603.01;;;23.38;48.83
81905;BME280;71370;-33.792;151.032;2023-09-30T00:14:08;101605.42;;;23.43;49.01
81905;BME280;71370;-33.792;151.032;2023-09-30T00:15:15;101602.30;;;23.47;48.26
81905;BME280;71370;-33.792;151.032;2023-09-30T00:16:22;101604.13;;;23.51;48.96
81905;BME280;71370;-33.792;151.032;2023-09-30T00:17:30;101605.69;;;23.55;48.89
81905;BME280;71370;-33.792;151.032;2023-09-30T00:18:37;101604.35;;;23.60;48.94
81905;BME280;71370;-33.792;151.032;2023-09-30T00:19:44;101600.81;;;23.65;48.98
81905;BME280;71370;-33.792;151.032;2023-09-30T00:20:51;101597.14;;;23.70;49.10
81905;BME280;71370;-33.792;151.032;2023-09-30T00:21:58;101596.85;;;23.75;48.77
81905;BME280;71370;-33.792;151.032;2023-09-30T00:23:06;101590.74;;;23.79;48.73
81905;BME280;71370;-33.792;151.032;2023-09-30T00:24:13;101583.18;;;23.83;49.15
81905;BME280;71370;-33.792;151.032;2023-09-30T00:25:20;101583.27;;;23.88;49.44
81905;BME280;71370;-33.792;151.032;2023-09-30T00:26:27;101584.06;;;23.93;48.76
81905;BME280;71370;-33.792;151.032;2023-09-30T00:27:35;101577.13;;;23.98;48.86
81905;BME280;71370;-33.792;151.032;2023-09-30T00:28:42;101574.16;;;24.02;48.48
81905;BME280;71370;-33.792;151.032;2023-09-30T00:29:49;101570.02;;;24.06;47.92
81905;BME280;71370;-33.792;151.032;2023-09-30T00:30:56;101568.64;;;24.08;47.17
81905;BME280;71370;-33.792;151.032;2023-09-30T00:32:03;101564.92;;;24.10;46.46
81905;BME280;71370;-33.792;151.032;2023-09-30T00:33:10;101564.61;;;24.13;46.42
81905;BME280;71370;-33.792;151.032;2023-09-30T00:34:17;101558.73;;;24.15;46.65
81905;BME280;71370;-33.792;151.032;2023-09-30T00:35:24;101554.60;;;24.18;46.94
81905;BME280;71370;-33.792;151.032;2023-09-30T00:36:32;101550.17;;;24.23;47.68
81905;BME280;71370;-33.792;151.032;2023-09-30T00:37:39;101549.80;;;24.30;48.01
81905;BME280;71370;-33.792;151.032;2023-09-30T00:38:47;101545.96;;;24.37;47.43
81905;BME280;71370;-33.792;151.032;2023-09-30T00:39:54;101544.39;;;24.42;46.93
81905;BME280;71370;-33.792;151.032;2023-09-30T00:41:01;101545.33;;;24.47;46.85
81905;BME280;71370;-33.792;151.032;2023-09-30T00:42:09;101542.73;;;24.53;46.59
81905;BME280;71370;-33.792;151.032;2023-09-30T00:43:20;101540.98;;;24.58;46.53
81905;BME280;71370;-33.792;151.032;2023-09-30T00:44:27;101544.17;;;24.64;46.55
81905;BME280;71370;-33.792;151.032;2023-09-30T00:45:34;101539.61;;;24.69;46.39
81905;BME280;71370;-33.792;151.032;2023-09-30T00:46:45;101535.73;;;24.74;46.43
81905;BME280;71370;-33.792;151.032;2023-09-30T00:47:52;101527.68;;;24.78;45.62
81905;BME280;71370;-33.792;151.032;2023-09-30T00:49:00;101523.31;;;24.82;45.96
81905;BME280;71370;-33.792;151.032;2023-09-30T00:50:08;101521.02;;;24.87;46.48
81905;BME280;71370;-33.792;151.032;2023-09-30T00:51:17;101515.41;;;24.94;46.10
81905;BME280;71370;-33.792;151.032;2023-09-30T00:52:24;101511.90;;;24.98;45.61
81905;BME280;71370;-33.792;151.032;2023-09-30T00:53:31;101510.36;;;25.03;45.85
81905;BME280;71370;-33.792;151.032;2023-09-30T00:54:39;101505.23;;;25.07;45.57
81905;BME280;71370;-33.792;151.032;2023-09-30T00:55:46;101501.76;;;25.11;45.68
81905;BME280;71370;-33.792;151.032;2023-09-30T00:56:55;101497.50;;;25.16;46.10
81905;BME280;71370;-33.792;151.032;2023-09-30T00:58:02;101499.50;;;25.21;45.89
81905;BME280;71370;-33.792;151.032;2023-09-30T00:59:09;101495.13;;;25.29;45.38
81905;BME280;71370;-33.792;151.032;2023-09-30T01:00:17;101487.77;;;25.33;44.46
81905;BME280;71370;-33.792;151.032;2023-09-30T01:01:26;101486.27;;;25.37;44.81
81905;BME280;71370;-33.792;151.032;2023-09-30T01:02:33;101488.02;;;25.41;44.37
81905;BME280;71370;-33.792;151.032;2023-09-30T01:03:41;101483.29;;;25.44;44.53
81905;BME280;71370;-33.792;151.032;2023-09-30T01:04:48;101478.70;;;25.49;44.55
81905;BME280;71370;-33.792;151.032;2023-09-30T01:05:56;101476.08;;;25.53;44.34
81905;BME280;71370;-33.792;151.032;2023-09-30T01:07:03;101476.52;;;25.57;43.96
81905;BME280;71370;-33.792;151.032;2023-09-30T01:08:11;101472.48;;;25.61;43.85
81905;BME280;71370;-33.792;151.032;2023-09-30T01:09:19;101473.27;;;25.66;43.86
81905;BME280;71370;-33.792;151.032;2023-09-30T01:10:27;101469.38;;;25.70;43.40
81905;BME280;71370;-33.792;151.032;2023-09-30T01:11:34;101468.54;;;25.75;43.37
81905;BME280;71370;-33.792;151.032;2023-09-30T01:12:41;101470.06;;;25.79;42.95
81905;BME280;71370;-33.792;151.032;2023-09-30T01:13:48;101467.67;;;25.82;43.73
81905;BME280;71370;-33.792;151.032;2023-09-30T01:14:59;101464.85;;;25.87;43.03
81905;BME280;71370;-33.792;151.032;2023-09-30T01:16:11;101458.73;;;25.93;43.15
81905;BME280;71370;-33.792;151.032;2023-09-30T01:17:18;101462.11;;;25.99;43.14
81905;BME280;71370;-33.792;151.032;2023-09-30T01:18:25;101459.45;;;26.04;42.54
81905;BME280;71370;-33.792;151.032;2023-09-30T01:19:32;101456.22;;;26.09;42.41
81905;BME280;71370;-33.792;151.032;2023-09-30T01:20:39;101454.28;;;26.14;42.35
81905;BME280;71370;-33.792;151.032;2023-09-30T01:21:46;101453.84;;;26.17;41.55
81905;BME280;71370;-33.792;151.032;2023-09-30T01:22:57;101451.39;;;26.21;42.14
81905;BME280;71370;-33.792;151.032;2023-09-30T01:24:04;101449.23;;;26.27;41.61
81905;BME280;71370;-33.792;151.032;2023-09-30T01:25:12;101451.52;;;26.30;41.31
81905;BME280;71370;-33.792;151.032;2023-09-30T01:26:19;101448.25;;;26.33;41.15
81905;BME280;71370;-33.792;151.032;2023-09-30T01:27:26;101443.81;;;26.35;41.01
81905;BME280;71370;-33.792;151.032;2023-09-30T01:28:33;101437.17;;;26.37;41.63
81905;BME280;71370;-33.792;151.032;2023-09-30T01:29:40;101436.10;;;26.42;42.07
81905;BME280;71370;-33.792;151.032;2023-09-30T01:30:47;101430.56;;;26.47;41.33
81905;BME280;71370;-33.792;151.032;2023-09-30T01:31:54;101426.70;;;26.51;41.27
81905;BME280;71370;-33.792;151.032;2023-09-30T01:33:02;101424.05;;;26.55;41.53
81905;BME280;71370;-33.792;151.032;2023-09-30T01:34:09;101415.88;;;26.61;41.51
81905;BME280;71370;-33.792;151.032;2023-09-30T01:35:17;101414.26;;;26.66;41.06
81905;BME280;71370;-33.792;151.032;2023-09-30T01:36:24;101413.42;;;26.70;41.03
81905;BME280;71370;-33.792;151.032;2023-09-30T01:37:31;101412.72;;;26.75;41.05
81905;BME280;71370;-33.792;151.032;2023-09-30T01:38:38;101412.39;;;26.80;41.53
81905;BME280;71370;-33.792;151.032;2023-09-30T01:39:45;101407.23;;;26.86;41.10
81905;BME280;71370;-33.792;151.032;2023-09-30T01:40:53;101409.48;;;26.93;41.47
81905;BME280;71370;-33.792;151.032;2023-09-30T01:42:00;101404.88;;;26.99;40.93
81905;BME280;71370;-33.792;151.032;2023-09-30T01:43:07;101410.55;;;27.06;40.52
81905;BME280;71370;-33.792;151.032;2023-09-30T01:44:14;101402.33;;;27.09;40.92
81905;BME280;71370;-33.792;151.032;2023-09-30T01:45:21;101399.95;;;27.15;40.77
81905;BME280;71370;-33.792;151.032;2023-09-30T01:46:28;101391.66;;;27.19;40.49
81905;BME280;71370;-33.792;151.032;2023-09-30T01:47:36;101393.44;;;27.25;40.44
81905;BME280;71370;-33.792;151.032;2023-09-30T01:48:43;101393.73;;;27.31;40.90
81905;BME280;71370;-33.792;151.032;2023-09-30T01:49:50;101393.33;;;27.36;40.30
81905;BME280;71370;-33.792;151.032;2023-09-30T01:50:57;101387.61;;;27.41;40.11
81905;BME280;71370;-33.792;151.032;2023-09-30T01:52:04;101382.08;;;27.45;40.09
81905;BME280;71370;-33.792;151.032;2023-09-30T01:53:11;101385.81;;;27.48;40.15
81905;BME280;71370;-33.792;151.032;2023-09-30T01:54:18;101379.70;;;27.52;39.62
81905;BME280;71370;-33.792;151.032;2023-09-30T01:55:25;101379.27;;;27.55;39.30
81905;BME280;71370;-33.792;151.032;2023-09-30T01:56:32;101372.85;;;27.59;39.52
81905;BME280;71370;-33.792;151.032;2023-09-30T01:57:39;101370.33;;;27.64;39.63
81905;BME280;71370;-33.792;151.032;2023-09-30T01:58:46;101371.21;;;27.69;39.29
81905;BME280;71370;-33.792;151.032;2023-09-30T01:59:53;101368.84;;;27.74;38.85
81905;BME280;71370;-33.792;151.032;2023-09-30T02:01:04;101366.33;;;27.79;37.78
81905;BME280;71370;-33.792;151.032;2023-09-30T02:02:11;101360.54;;;27.81;37.28
81905;BME280;71370;-33.792;151.032;2023-09-30T02:03:19;101364.02;;;27.83;37.89
81905;BME280;71370;-33.792;151.032;2023-09-30T02:04:26;101358.11;;;27.84;38.32
81905;BME280;71370;-33.792;151.032;2023-09-30T02:05:33;101350.15;;;27.87;37.60
81905;BME280;71370;-33.792;151.032;2023-09-30T02:06:40;101349.73;;;27.88;37.93
81905;BME280;71370;-33.792;151.032;2023-09-30T02:07:47;101344.70;;;27.90;38.21
81905;BME280;71370;-33.792;151.032;2023-09-30T02:08:54;101343.16;;;27.93;38.55
81905;BME280;71370;-33.792;151.032;2023-09-30T02:10:02;101343.62;;;27.97;38.76
81905;BME280;71370;-33.792;151.032;2023-09-30T02:11:09;101336.89;;;28.02;37.88
81905;BME280;71370;-33.792;151.032;2023-09-30T02:12:16;101335.27;;;28.07;37.81
81905;BME280;71370;-33.792;151.032;2023-09-30T02:13:23;101331.56;;;28.10;37.81
81905;BME280;71370;-33.792;151.032;2023-09-30T02:14:32;101329.98;;;28.14;38.19
81905;BME280;71370;-33.792;151.032;2023-09-30T02:15:42;101327.57;;;28.20;38.19
81905;BME280;71370;-33.792;151.032;2023-09-30T02:16:49;101328.16;;;28.26;38.08
81905;BME280;71370;-33.792;151.032;2023-09-30T02:17:56;101329.21;;;28.31;37.01
81905;BME280;71370;-33.792;151.032;2023-09-30T02:19:03;101324.67;;;28.36;37.17
81905;BME280;71370;-33.792;151.032;2023-09-30T02:20:11;101317.87;;;28.40;36.98
81905;BME280;71370;-33.792;151.032;2023-09-30T02:21:22;101316.92;;;28.45;37.11
81905;BME280;71370;-33.792;151.032;2023-09-30T02:22:28;101315.48;;;28.49;37.34
81905;BME280;71370;-33.792;151.032;2023-09-30T02:23:36;101311.05;;;28.55;37.10
81905;BME280;71370;-33.792;151.032;2023-09-30T02:24:43;101311.46;;;28.61;37.00
81905;BME280;71370;-33.792;151.032;2023-09-30T02:25:50;101310.19;;;28.66;37.25
81905;BME280;71370;-33.792;151.032;2023-09-30T02:26:57;101304.11;;;28.71;36.60
81905;BME280;71370;-33.792;151.032;2023-09-30T02:28:09;101302.14;;;28.76;36.71
81905;BME280;71370;-33.792;151.032;2023-09-30T02:29:16;101300.48;;;28.81;36.99
81905;BME280;71370;-33.792;151.032;2023-09-30T02:30:23;101297.25;;;28.85;35.58
81905;BME280;71370;-33.792;151.032;2023-09-30T02:31:31;101291.10;;;28.87;35.69
81905;BME280;71370;-33.792;151.032;2023-09-30T02:32:39;101286.67;;;28.90;35.37
81905;BME280;71370;-33.792;151.032;2023-09-30T02:33:46;101287.38;;;28.92;35.92
81905;BME280;71370;-33.792;151.032;2023-09-30T02:34:53;101287.23;;;28.97;36.13
81905;BME280;71370;-33.792;151.032;2023-09-30T02:36:01;101288.71;;;29.00;36.27
81905;BME280;71370;-33.792;151.032;2023-09-30T02:37:11;101283.73;;;29.06;36.07
81905;BME280;71370;-33.792;151.032;2023-09-30T02:38:18;101276.90;;;29.09;35.61
81905;BME280;71370;-33.792;151.032;2023-09-30T02:39:27;101276.81;;;29.13;35.89
81905;BME280;71370;-33.792;151.032;2023-09-30T02:40:34;101275.15;;;29.18;36.46
81905;BME280;71370;-33.792;151.032;2023-09-30T02:41:41;101273.23;;;29.23;35.67
81905;BME280;71370;-33.792;151.032;2023-09-30T02:42:48;101269.34;;;29.29;36.13
81905;BME280;71370;-33.792;151.032;2023-09-30T02:43:55;101269.27;;;29.34;35.93
81905;BME280;71370;-33.792;151.032;2023-09-30T02:45:03;101264.48;;;29.40;35.44
81905;BME280;71370;-33.792;151.032;2023-09-30T02:46:10;101263.61;;;29.43;35.42
81905;BME280;71370;-33.792;151.032;2023-09-30T02:47:18;101259.31;;;29.47;35.03
81905;BME280;71370;-33.792;151.032;2023-09-30T02:48:25;101257.39;;;29.50;34.89
81905;BME280;71370;-33.792;151.032;2023-09-30T02:49:33;101249.71;;;29.53;34.81
81905;BME280;71370;-33.792;151.032;2023-09-30T02:50:43;101249.24;;;29.57;34.15
81905;BME280;71370;-33.792;151.032;2023-09-30T02:51:53;101247.27;;;29.58;34.52
81905;BME280;71370;-33.792;151.032;2023-09-30T02:53:01;101245.34;;;29.62;34.42
81905;BME280;71370;-33.792;151.032;2023-09-30T02:54:08;101239.73;;;29.64;33.86
81905;BME280;71370;-33.792;151.032;2023-09-30T02:55:15;101240.54;;;29.67;34.05
81905;BME280;71370;-33.792;151.032;2023-09-30T02:56:22;101231.55;;;29.71;33.96
81905;BME280;71370;-33.792;151.032;2023-09-30T02:57:30;101232.42;;;29.74;34.21
81905;BME280;71370;-33.792;151.032;2023-09-30T02:58:37;101223.00;;;29.76;33.68
81905;BME280;71370;-33.792;151.032;2023-09-30T02:59:47;101222.90;;;29.79;34.07
81905;BME280;71370;-33.792;151.032;2023-09-30T03:00:54;101219.56;;;29.81;34.12
81905;BME280;71370;-33.792;151.032;2023-09-30T03:02:01;101217.98;;;29.85;33.97
81905;BME280;71370;-33.792;151.032;2023-09-30T03:03:09;101214.13;;;29.88;33.54
81905;BME280;71370;-33.792;151.032;2023-09-30T03:04:16;101215.69;;;29.91;33.97
81905;BME280;71370;-33.792;151.032;2023-09-30T03:05:25;101213.77;;;29.94;33.98
81905;BME280;71370;-33.792;151.032;2023-09-30T03:06:37;101210.00;;;29.98;33.61
81905;BME280;71370;-33.792;151.032;2023-09-30T03:07:44;101207.90;;;30.01;33.26
81905;BME280;71370;-33.792;151.032;2023-09-30T03:08:52;101204.81;;;30.03;33.08
81905;BME280;71370;-33.792;151.032;2023-09-30T03:09:59;101203.17;;;30.05;33.17
81905;BME280;71370;-33.792;151.032;2023-09-30T03:11:11;101203.83;;;30.08;33.08
81905;BME280;71370;-33.792;151.032;2023-09-30T03:12:19;101203.48;;;30.12;33.13
81905;BME280;71370;-33.792;151.032;2023-09-30T03:13:26;101200.92;;;30.16;32.42
81905;BME280;71370;-33.792;151.032;2023-09-30T03:14:33;101195.38;;;30.19;31.83
81905;BME280;71370;-33.792;151.032;2023-09-30T03:15:40;101191.02;;;30.21;31.50
81905;BME280;71370;-33.792;151.032;2023-09-30T03:16:47;101193.66;;;30.20;30.42
81905;BME280;71370;-33.792;151.032;2023-09-30T03:17:54;101184.88;;;30.19;30.04
81905;BME280;71370;-33.792;151.032;2023-09-30T03:19:02;101182.86;;;30.17;30.05
81905;BME280;71370;-33.792;151.032;2023-09-30T03:20:15;101177.90;;;30.16;29.94
81905;BME280;71370;-33.792;151.032;2023-09-30T03:21:25;101174.79;;;30.16;30.35
81905;BME280;71370;-33.792;151.032;2023-09-30T03:22:32;101176.27;;;30.18;31.01
81905;BME280;71370;-33.792;151.032;2023-09-30T03:23:39;101173.66;;;30.19;29.96
81905;BME280;71370;-33.792;151.032;2023-09-30T03:24:46;101173.18;;;30.20;31.02
81905;BME280;71370;-33.792;151.032;2023-09-30T03:25:56;101169.90;;;30.22;30.30
81905;BME280;71370;-33.792;151.032;2023-09-30T03:27:03;101166.33;;;30.24;30.86
81905;BME280;71370;-33.792;151.032;2023-09-30T03:28:10;101164.98;;;30.26;30.98
81905;BME280;71370;-33.792;151.032;2023-09-30T03:29:17;101158.84;;;30.31;30.29
81905;BME280;71370;-33.792;151.032;2023-09-30T03:30:24;101155.45;;;30.34;30.26
81905;BME280;71370;-33.792;151.032;2023-09-30T03:31:31;101153.77;;;30.39;30.34
81905;BME280;71370;-33.792;151.032;2023-09-30T03:32:39;101147.03;;;30.43;30.12
81905;BME280;71370;-33.792;151.032;2023-09-30T03:33:46;101144.41;;;30.46;30.09
81905;BME280;71370;-33.792;151.032;2023-09-30T03:34:54;101139.17;;;30.50;29.70
81905;BME280;71370;-33.792;151.032;2023-09-30T03:36:08;101140.14;;;30.51;29.82
81905;BME280;71370;-33.792;151.032;2023-09-30T03:37:15;101136.31;;;30.53;29.60
81905;BME280;71370;-33.792;151.032;2023-09-30T03:38:22;101132.23;;;30.52;28.98
81905;BME280;71370;-33.792;151.032;2023-09-30T03:39:29;101135.64;;;30.50;29.33
81905;BME280;71370;-33.792;151.032;2023-09-30T03:40:40;101127.66;;;30.50;29.63
81905;BME280;71370;-33.792;151.032;2023-09-30T03:41:56;101129.55;;;30.50;29.42
81905;BME280;71370;-33.792;151.032;2023-09-30T03:43:05;101127.16;;;30.50;29.70
81905;BME280;71370;-33.792;151.032;2023-09-30T03:44:12;101122.32;;;30.49;29.47
81905;BME280;71370;-33.792;151.032;2023-09-30T03:45:20;101120.20;;;30.49;29.74
81905;BME280;71370;-33.792;151.032;2023-09-30T03:46:27;101122.09;;;30.48;29.56
81905;BME280;71370;-33.792;151.032;2023-09-30T03:47:37;101117.35;;;30.48;29.33
81905;BME280;71370;-33.792;151.032;2023-09-30T03:48:45;101117.27;;;30.47;29.38
81905;BME280;71370;-33.792;151.032;2023-09-30T03:49:53;101112.58;;;30.46;29.72
81905;BME280;71370;-33.792;151.032;2023-09-30T03:51:14;101112.69;;;30.47;30.04
81905;BME280;71370;-33.792;151.032;2023-09-30T03:52:21;101108.94;;;30.49;29.88
81905;BME280;71370;-33.792;151.032;2023-09-30T03:53:31;101100.95;;;30.49;29.69
81905;BME280;71370;-33.792;151.032;2023-09-30T03:54:38;101097.61;;;30.50;29.76
81905;BME280;71370;-33.792;151.032;2023-09-30T03:55:47;101099.02;;;30.50;30.38
81905;BME280;71370;-33.792;151.032;2023-09-30T03:56:54;101091.95;;;30.52;29.23
81905;BME280;71370;-33.792;151.032;2023-09-30T03:58:02;101088.56;;;30.51;27.70
81905;BME280;71370;-33.792;151.032;2023-09-30T03:59:10;101086.47;;;30.50;28.26
81905;BME280;71370;-33.792;151.032;2023-09-30T04:00:17;101085.77;;;30.50;28.21
81905;BME280;71370;-33.792;151.032;2023-09-30T04:01:25;101082.26;;;30.51;29.05
81905;BME280;71370;-33.792;151.032;2023-09-30T04:02:33;101082.27;;;30.53;28.80
81905;BME280;71370;-33.792;151.032;2023-09-30T04:03:41;101083.09;;;30.53;28.37
81905;BME280;71370;-33.792;151.032;2023-09-30T04:04:49;101079.90;;;30.55;27.15
81905;BME280;71370;-33.792;151.032;2023-09-30T04:06:00;101079.52;;;30.53;26.25
81905;BME280;71370;-33.792;151.032;2023-09-30T04:07:08;101074.96;;;30.51;26.10
81905;BME280;71370;-33.792;151.032;2023-09-30T04:08:16;101074.01;;;30.50;26.40
81905;BME280;71370;-33.792;151.032;2023-09-30T04:09:23;101070.02;;;30.47;26.89
81905;BME280;71370;-33.792;151.032;2023-09-30T04:10:31;101073.12;;;30.47;27.35
81905;BME280;71370;-33.792;151.032;2023-09-30T04:11:39;101071.89;;;30.47;27.48
81905;BME280;71370;-33.792;151.032;2023-09-30T04:12:49;101066.98;;;30.47;27.49
81905;BME280;71370;-33.792;151.032;2023-09-30T04:13:56;101068.39;;;30.47;27.61
81905;BME280;71370;-33.792;151.032;2023-09-30T04:15:03;101062.73;;;30.48;27.34
81905;BME280;71370;-33.792;151.032;2023-09-30T04:16:11;101063.68;;;30.49;27.19
81905;BME280;71370;-33.792;151.032;2023-09-30T04:17:19;101061.46;;;30.50;27.13
81905;BME280;71370;-33.792;151.032;2023-09-30T04:18:28;101057.45;;;30.52;26.63
81905;BME280;71370;-33.792;151.032;2023-09-30T04:19:36;101051.66;;;30.54;27.00
81905;BME280;71370;-33.792;151.032;2023-09-30T04:20:43;101049.83;;;30.56;26.84
81905;BME280;71370;-33.792;151.032;2023-09-30T04:21:52;101045.10;;;30.58;26.77
81905;BME280;71370;-33.792;151.032;2023-09-30T04:23:00;101044.59;;;30.60;26.95
81905;BME280;71370;-33.792;151.032;2023-09-30T04:24:08;101040.63;;;30.61;26.27
81905;BME280;71370;-33.792;151.032;2023-09-30T04:25:16;101038.59;;;30.62;25.84
81905;BME280;71370;-33.792;151.032;2023-09-30T04:26:24;101037.77;;;30.60;25.85
81905;BME280;71370;-33.792;151.032;2023-09-30T04:27:31;101035.17;;;30.61;26.01
81905;BME280;71370;-33.792;151.032;2023-09-30T04:28:38;101032.98;;;30.61;26.20
81905;BME280;71370;-33.792;151.032;2023-09-30T04:29:45;101031.42;;;30.62;25.45
81905;BME280;71370;-33.792;151.032;2023-09-30T04:30:52;101033.20;;;30.63;25.71
81905;BME280;71370;-33.792;151.032;2023-09-30T04:31:59;101027.22;;;30.63;25.64
81905;BME280;71370;-33.792;151.032;2023-09-30T04:33:06;101029.45;;;30.62;25.53
81905;BME280;71370;-33.792;151.032;2023-09-30T04:34:14;101026.27;;;30.61;25.50
81905;BME280;71370;-33.792;151.032;2023-09-30T04:35:21;101023.32;;;30.62;25.66
81905;BME280;71370;-33.792;151.032;2023-09-30T04:36:28;101018.77;;;30.62;25.53
81905;BME280;71370;-33.792;151.032;2023-09-30T04:37:37;101015.45;;;30.62;25.02
81905;BME280;71370;-33.792;151.032;2023-09-30T04:38:44;101011.80;;;30.63;25.83
81905;BME280;71370;-33.792;151.032;2023-09-30T04:39:52;101012.54;;;30.62;28.13
81905;BME280;71370;-33.792;151.032;2023-09-30T04:40:59;101014.44;;;30.60;30.04
81905;BME280;71370;-33.792;151.032;2023-09-30T04:42:06;101011.86;;;30.56;29.03
81905;BME280;71370;-33.792;151.032;2023-09-30T04:43:17;101010.20;;;30.53;27.94
81905;BME280;71370;-33.792;151.032;2023-09-30T04:44:24;101007.71;;;30.52;28.10
81905;BME280;71370;-33.792;151.032;2023-09-30T04:45:34;101011.56;;;30.52;26.90
81905;BME280;71370;-33.792;151.032;2023-09-30T04:46:41;101015.52;;;30.52;26.53
81905;BME280;71370;-33.792;151.032;2023-09-30T04:47:54;101008.66;;;30.52;29.46
81905;BME280;71370;-33.792;151.032;2023-09-30T04:49:04;101004.98;;;30.51;32.21
81905;BME280;71370;-33.792;151.032;2023-09-30T04:50:12;101003.17;;;30.48;33.15
81905;BME280;71370;-33.792;151.032;2023-09-30T04:51:22;101002.23;;;30.46;33.59
81905;BME280;71370;-33.792;151.032;2023-09-30T04:52:31;100996.46;;;30.44;33.48
81905;BME280;71370;-33.792;151.032;2023-09-30T04:53:38;100997.67;;;30.43;32.06
81905;BME280;71370;-33.792;151.032;2023-09-30T04:54:45;100993.30;;;30.41;32.46
81905;BME280;71370;-33.792;151.032;2023-09-30T04:55:53;100991.73;;;30.41;32.81
81905;BME280;71370;-33.792;151.032;2023-09-30T04:57:00;100993.07;;;30.40;32.97
81905;BME280;71370;-33.792;151.032;2023-09-30T04:58:06;100994.73;;;30.40;31.28
81905;BME280;71370;-33.792;151.032;2023-09-30T04:59:14;100991.50;;;30.37;32.32
81905;BME280;71370;-33.792;151.032;2023-09-30T05:00:22;100992.70;;;30.34;33.74
81905;BME280;71370;-33.792;151.032;2023-09-30T05:01:34;100991.40;;;30.30;34.42
81905;BME280;71370;-33.792;151.032;2023-09-30T05:02:41;100996.70;;;30.26;34.59
81905;BME280;71370;-33.792;151.032;2023-09-30T05:03:51;100992.38;;;30.22;34.82
81905;BME280;71370;-33.792;151.032;2023-09-30T05:04:58;100992.20;;;30.16;35.16
81905;BME280;71370;-33.792;151.032;2023-09-30T05:06:05;100996.23;;;30.11;35.52
81905;BME280;71370;-33.792;151.032;2023-09-30T05:07:14;100990.21;;;30.06;35.69
81905;BME280;71370;-33.792;151.032;2023-09-30T05:08:22;100991.13;;;30.00;35.85
81905;BME280;71370;-33.792;151.032;2023-09-30T05:09:29;100992.11;;;29.93;35.83
81905;BME280;71370;-33.792;151.032;2023-09-30T05:10:37;100992.21;;;29.85;36.10
81905;BME280;71370;-33.792;151.032;2023-09-30T05:11:44;100992.74;;;29.80;36.23
81905;BME280;71370;-33.792;151.032;2023-09-30T05:12:51;100993.81;;;29.74;36.35
81905;BME280;71370;-33.792;151.032;2023-09-30T05:14:00;100991.89;;;29.69;36.23
81905;BME280;71370;-33.792;151.032;2023-09-30T05:15:08;100993.50;;;29.63;36.59
81905;BME280;71370;-33.792;151.032;2023-09-30T05:16:15;100992.11;;;29.59;36.88
81905;BME280;71370;-33.792;151.032;2023-09-30T05:17:22;100987.58;;;29.55;37.03
81905;BME280;71370;-33.792;151.032;2023-09-30T05:18:29;100985.70;;;29.51;37.08
81905;BME280;71370;-33.792;151.032;2023-09-30T05:19:36;100981.84;;;29.48;37.37
81905;BME280;71370;-33.792;151.032;2023-09-30T05:20:44;100976.77;;;29.46;37.75
81905;BME280;71370;-33.792;151.032;2023-09-30T05:21:51;100982.92;;;29.44;37.70
81905;BME280;71370;-33.792;151.032;2023-09-30T05:22:58;100981.67;;;29.41;37.43
81905;BME280;71370;-33.792;151.032;2023-09-30T05:24:05;100976.30;;;29.39;37.74
81905;BME280;71370;-33.792;151.032;2023-09-30T05:25:14;100981.11;;;29.36;37.65
81905;BME280;71370;-33.792;151.032;2023-09-30T05:26:24;100980.46;;;29.33;37.77
81905;BME280;71370;-33.792;151.032;2023-09-30T05:27:31;100973.23;;;29.30;38.23
81905;BME280;71370;-33.792;151.032;2023-09-30T05:28:38;100976.33;;;29.28;38.36
81905;BME280;71370;-33.792;151.032;2023-09-30T05:29:46;100973.46;;;29.26;38.59
81905;BME280;71370;-33.792;151.032;2023-09-30T05:30:53;100973.37;;;29.25;38.70
81905;BME280;71370;-33.792;151.032;2023-09-30T05:32:00;100972.58;;;29.23;38.71
81905;BME280;71370;-33.792;151.032;2023-09-30T05:33:07;100973.12;;;29.22;38.44
81905;BME280;71370;-33.792;151.032;2023-09-30T05:34:19;100973.59;;;29.20;38.58
81905;BME280;71370;-33.792;151.032;2023-09-30T05:35:26;100969.27;;;29.18;38.59
81905;BME280;71370;-33.792;151.032;2023-09-30T05:36:34;100969.66;;;29.18;38.83
81905;BME280;71370;-33.792;151.032;2023-09-30T05:37:42;100968.09;;;29.17;38.89
81905;BME280;71370;-33.792;151.032;2023-09-30T05:38:51;100965.11;;;29.16;38.83
81905;BME280;71370;-33.792;151.032;2023-09-30T05:39:58;100970.13;;;29.15;39.09
81905;BME280;71370;-33.792;151.032;2023-09-30T05:41:05;100964.85;;;29.12;39.01